Time;durP1;ratioP1;P1;durP2;ratioP2;P2;SDS_P1;SDS_P2;PMS_P1;PMS_P2;Temp;Humidity;BMP_temperature;BMP_pressure;BME280_temperature;BME280_humidity;BME280_pressure;Samples;Min_cycle;Max_cycle;Signal;HPM_P1;HPM_P2
2022/12/31 00:01:06;;;;;;;3.22;2.28;;;;;;;12.65;100.00;100250.56;5013703;28;20029;-76
2022/12/31 00:03:32;;;;;;;4.88;2.00;;;;;;;12.65;100.00;100247.94;5013662;28;20152;-75
2022/12/31 00:05:58;;;;;;;5.50;2.67;;;;;;;12.66;100.00;100243.50;5013687;28;20491;-75
2022/12/31 00:08:23;;;;;;;3.92;2.15;;;;;;;12.65;100.00;100233.78;5013921;28;20096;-75
2022/12/31 00:10:49;;;;;;;2.83;2.20;;;;;;;12.67;100.00;100239.94;5013513;28;20515;-75
2022/12/31 00:13:14;;;;;;;3.60;2.15;;;;;;;12.67;100.00;100238.19;5013849;28;20025;-75
2022/12/31 00:15:40;;;;;;;4.03;1.95;;;;;;;12.65;100.00;100232.03;5013448;28;20040;-74
2022/12/31 00:18:06;;;;;;;3.75;2.10;;;;;;;12.70;100.00;100248.75;5013432;28;20030;-75
2022/12/31 00:20:31;;;;;;;5.38;2.20;;;;;;;12.72;100.00;100248.78;5013500;28;20092;-75
2022/12/31 00:22:57;;;;;;;3.58;2.20;;;;;;;12.70;100.00;100250.53;5013364;28;20742;-76
2022/12/31 00:25:22;;;;;;;4.88;2.10;;;;;;;12.73;100.00;100246.09;5013294;28;20443;-74
2022/12/31 00:27:48;;;;;;;3.47;2.00;;;;;;;12.73;100.00;100259.34;5012180;28;20042;-75
2022/12/31 00:30:13;;;;;;;3.83;1.98;;;;;;;12.74;100.00;100249.63;5013418;28;20418;-75
2022/12/31 00:32:39;;;;;;;3.03;2.10;;;;;;;12.76;100.00;100245.19;5013376;28;20030;-74
2022/12/31 00:35:05;;;;;;;3.67;2.10;;;;;;;12.76;100.00;100242.53;5013332;28;20076;-74
2022/12/31 00:37:31;;;;;;;2.78;2.00;;;;;;;12.75;100.00;100230.16;5013475;28;20026;-73
2022/12/31 00:39:56;;;;;;;3.65;2.00;;;;;;;12.76;100.00;100231.91;5013355;28;20383;-74
2022/12/31 00:42:22;;;;;;;2.80;2.15;;;;;;;12.75;100.00;100230.16;5013287;28;20442;-74
2022/12/31 00:44:47;;;;;;;3.05;2.05;;;;;;;12.74;100.00;100221.34;5013265;28;20026;-75
2022/12/31 00:47:12;;;;;;;2.95;2.10;;;;;;;12.74;100.00;100226.66;5013285;28;20555;-75
2022/12/31 00:49:38;;;;;;;3.50;2.17;;;;;;;12.70;100.00;100232.88;5013286;28;20041;-75
2022/12/31 00:52:04;;;;;;;2.97;1.90;;;;;;;12.72;100.00;100232.88;5013085;28;20545;-76
2022/12/31 00:54:29;;;;;;;2.70;2.15;;;;;;;12.73;100.00;100222.25;5011983;28;20021;-74
2022/12/31 00:56:54;;;;;;;2.83;1.90;;;;;;;12.73;100.00;100224.00;5011896;28;20030;-74
2022/12/31 00:59:20;;;;;;;3.70;2.00;;;;;;;12.73;100.00;100227.53;5013039;28;20065;-75
2022/12/31 01:01:45;;;;;;;2.17;1.70;;;;;;;12.70;100.00;100231.97;5013101;28;20057;-75
2022/12/31 01:04:19;;;;;;;3.83;1.70;;;;;;;12.72;100.00;100209.00;5016446;28;20048;-74
2022/12/31 01:06:46;;;;;;;3.53;1.70;;;;;;;12.71;100.00;100207.22;5015853;28;20045;-74
2022/12/31 01:09:12;;;;;;;3.95;1.70;;;;;;;12.71;100.00;100217.84;5016656;28;20045;-74
2022/12/31 01:11:38;;;;;;;4.78;1.60;;;;;;;12.68;100.00;100201.97;5016817;28;20045;-74
2022/12/31 01:14:07;;;;;;;2.03;1.50;;;;;;;12.69;100.00;100224.94;5016792;28;20022;-74
2022/12/31 01:16:41;;;;;;;2.60;1.65;;;;;;;12.69;100.00;100211.69;5016797;28;20414;-74
2022/12/31 01:19:10;;;;;;;1.65;1.35;;;;;;;12.67;100.00;100205.50;5016628;28;20030;-73
2022/12/31 01:21:38;;;;;;;1.60;1.50;;;;;;;12.65;100.00;100204.63;5016518;28;20033;-73
2022/12/31 01:24:04;;;;;;;1.80;1.35;;;;;;;12.65;100.00;100200.22;5016780;28;20479;-73
2022/12/31 01:26:30;;;;;;;1.58;1.35;;;;;;;12.63;100.00;100207.28;5016509;28;20033;-74
2022/12/31 01:28:55;;;;;;;2.92;1.38;;;;;;;12.59;100.00;100202.03;5016536;28;20030;-74
2022/12/31 01:31:22;;;;;;;1.60;1.40;;;;;;;12.63;100.00;100224.97;5016473;28;20030;-73
2022/12/31 01:33:48;;;;;;;1.17;1.15;;;;;;;12.61;100.00;100216.16;5038963;23;20107;-72
2022/12/31 01:36:21;;;;;;;1.38;1.27;;;;;;;12.59;100.00;100212.63;5016519;28;20406;-71
2022/12/31 01:38:46;;;;;;;1.70;1.38;;;;;;;12.54;100.00;100223.25;5038534;23;20061;-72
2022/12/31 01:41:15;;;;;;;1.38;1.27;;;;;;;12.51;100.00;100226.84;5061230;23;20493;-85
2022/12/31 01:43:49;;;;;;;4.05;1.60;;;;;;;12.49;100.00;100225.94;5016384;28;20053;-83
2022/12/31 01:46:39;;;;;;;1.52;1.20;;;;;;;12.49;100.00;100228.59;4999484;28;20175;-84
2022/12/31 01:52:07;;;;;;;3.55;1.63;;;;;;;12.45;100.00;100231.28;4977647;23;20114;-69
2022/12/31 01:54:38;;;;;;;2.80;1.30;;;;;;;12.45;100.00;100248.06;4959712;28;20093;-68
2022/12/31 01:59:30;;;;;;;4.32;1.30;;;;;;;12.45;100.00;100290.44;4992206;23;20055;-83
2022/12/31 02:01:56;;;;;;;2.88;1.20;;;;;;;12.46;100.00;100292.25;4997607;23;20777;-85
2022/12/31 02:04:23;;;;;;;1.45;1.15;;;;;;;12.47;100.00;100287.81;4998367;28;20095;-82
2022/12/31 02:07:05;;;;;;;1.38;1.27;;;;;;;12.46;100.00;100233.94;5016475;28;20496;-82
2022/12/31 02:57:15;;;;;;;2.30;2.03;;;;;;;12.45;100.00;100284.28;4978615;28;20515;-66
2022/12/31 03:02:44;;;;;;;2.90;2.10;;;;;;;12.40;100.00;100275.47;4975914;28;20498;-67
2022/12/31 03:05:11;;;;;;;2.50;2.20;;;;;;;12.42;100.00;100276.34;4975988;28;20227;-68
2022/12/31 03:07:39;;;;;;;3.92;2.22;;;;;;;12.36;100.00;100279.91;4975573;28;20114;-68
2022/12/31 03:10:05;;;;;;;2.92;2.42;;;;;;;12.37;100.00;100271.06;4975636;28;20038;-66
2022/12/31 03:12:45;;;;;;;2.70;2.40;;;;;;;12.37;100.00;100278.13;4975480;28;20035;-66
2022/12/31 03:15:21;;;;;;;2.72;2.20;;;;;;;12.35;100.00;100264.03;4975516;28;20157;-66
2022/12/31 03:18:12;;;;;;;4.07;2.50;;;;;;;12.35;100.00;100262.25;4975662;28;20030;-66
2022/12/31 03:23:34;;;;;;;3.42;2.30;;;;;;;12.30;100.00;100263.19;4975403;28;20093;-66
2022/12/31 03:26:01;;;;;;;2.50;2.10;;;;;;;12.30;100.00;100247.28;4975125;28;20081;-66
2022/12/31 03:28:29;;;;;;;2.25;2.05;;;;;;;12.26;100.00;100246.44;4975201;28;20548;-66
2022/12/31 03:30:58;;;;;;;3.78;2.38;;;;;;;12.23;100.00;100244.66;4957859;28;20026;-66
2022/12/31 03:33:24;;;;;;;2.85;2.30;;;;;;;12.23;100.00;100249.97;4975105;28;20031;-66
2022/12/31 03:35:51;;;;;;;2.97;2.17;;;;;;;12.22;100.00;100249.97;4975111;28;20388;-66
2022/12/31 03:38:17;;;;;;;2.15;1.95;;;;;;;12.22;100.00;100239.38;4975015;28;20106;-66
2022/12/31 03:40:48;;;;;;;2.42;2.00;;;;;;;12.22;100.00;100234.09;4957657;28;20029;-66
2022/12/31 03:43:14;;;;;;;3.90;2.00;;;;;;;12.20;100.00;100227.91;4975292;28;20413;-66
2022/12/31 03:45:39;;;;;;;2.67;2.30;;;;;;;12.20;100.00;100236.72;4957559;28;20027;-67
2022/12/31 03:48:07;;;;;;;2.55;2.35;;;;;;;12.18;100.00;100225.28;4974923;28;20031;-67
2022/12/31 03:50:33;;;;;;;3.00;2.40;;;;;;;12.18;100.00;100230.56;4974793;28;20392;-67
2022/12/31 03:52:58;;;;;;;2.30;2.10;;;;;;;12.16;100.00;100219.13;4974582;28;20019;-67
2022/12/31 03:55:24;;;;;;;3.47;2.30;;;;;;;12.16;100.00;100223.50;4974614;28;20483;-67
2022/12/31 03:57:51;;;;;;;3.67;2.13;;;;;;;12.17;100.00;100220.88;4974589;28;20022;-66
2022/12/31 04:00:19;;;;;;;2.35;2.00;;;;;;;12.17;100.00;100223.53;4974682;28;20058;-66
2022/12/31 04:02:46;;;;;;;1.98;1.80;;;;;;;12.18;100.00;100219.09;4974726;28;20033;-67
2022/12/31 04:05:11;;;;;;;2.10;1.90;;;;;;;12.16;100.00;100213.81;4974626;28;20031;-67
2022/12/31 04:07:37;;;;;;;3.75;1.70;;;;;;;12.17;100.00;100218.22;4974670;28;20081;-67
2022/12/31 04:10:05;;;;;;;1.60;1.50;;;;;;;12.18;100.00;100219.09;4974720;28;20038;-67
2022/12/31 04:12:31;;;;;;;4.05;1.40;;;;;;;12.19;100.00;100218.19;4974593;28;20031;-67
2022/12/31 04:14:57;;;;;;;1.50;1.40;;;;;;;12.19;100.00;100210.25;4974499;28;20480;-67
2022/12/31 04:17:22;;;;;;;1.55;1.40;;;;;;;12.26;100.00;100206.69;4973361;28;20031;-67
2022/12/31 04:19:48;;;;;;;1.65;1.30;;;;;;;12.30;100.00;100204.91;4974442;28;20078;-66
2022/12/31 04:22:13;;;;;;;2.65;1.30;;;;;;;12.30;100.00;100204.91;4974234;28;20026;-67
2022/12/31 04:24:41;;;;;;;5.20;1.50;;;;;;;12.39;100.00;100207.50;4974480;28;20031;-67
2022/12/31 04:27:07;;;;;;;2.33;1.42;;;;;;;12.42;100.00;100202.16;4974419;28;20054;-68
2022/12/31 04:29:32;;;;;;;2.13;1.20;;;;;;;12.50;100.00;100208.28;4957072;28;20070;-67
2022/12/31 04:31:57;;;;;;;2.72;1.50;;;;;;;12.57;100.00;100204.69;4974255;28;20023;-66
2022/12/31 04:34:23;;;;;;;3.35;1.50;;;;;;;12.65;100.00;100202.00;4974584;28;20038;-67
2022/12/31 04:36:48;;;;;;;1.75;1.20;;;;;;;12.71;100.00;100207.22;4974305;28;20550;-66
2022/12/31 04:39:14;;;;;;;2.75;1.55;;;;;;;12.76;100.00;100205.41;4977816;28;20109;-67
2022/12/31 04:41:39;;;;;;;5.93;1.75;;;;;;;12.79;100.00;100200.97;4978302;28;20537;-66
2022/12/31 04:44:04;;;;;;;3.20;1.60;;;;;;;12.86;100.00;100185.03;4978317;28;20037;-67
2022/12/31 04:46:32;;;;;;;4.63;1.55;;;;;;;12.92;100.00;100150.47;4978454;28;20035;-67
2022/12/31 04:48:59;;;;;;;4.28;1.60;;;;;;;13.08;100.00;100194.53;4978191;28;20077;-67
2022/12/31 04:51:26;;;;;;;4.63;1.60;;;;;;;13.16;100.00;100224.50;4978091;28;20034;-67
2022/12/31 04:53:51;;;;;;;2.60;1.95;;;;;;;13.13;100.00;100234.25;4978021;28;20076;-66
2022/12/31 04:56:17;;;;;;;3.15;2.30;;;;;;;13.05;100.00;100218.41;4977943;28;20125;-67
2022/12/31 04:58:43;;;;;;;3.20;2.22;;;;;;;12.89;100.00;100207.09;4978409;28;20023;-67
2022/12/31 05:01:09;;;;;;;2.78;2.15;;;;;;;12.86;100.00;100224.78;4977931;28;20601;-67
2022/12/31 05:03:35;;;;;;;5.38;1.55;;;;;;;12.97;100.00;100234.41;4977973;28;20550;-66
2022/12/31 05:06:11;;;;;;;5.28;1.85;;;;;;;13.13;100.00;100228.97;4977815;28;20027;-66
2022/12/31 05:08:36;;;;;;;3.65;1.58;;;;;;;13.30;100.00;100236.78;4977905;28;20034;-66
2022/12/31 05:11:02;;;;;;;4.15;1.50;;;;;;;13.40;100.00;100233.13;4977740;28;20038;-66
2022/12/31 05:13:28;;;;;;;3.30;1.40;;;;;;;13.49;100.00;100243.69;4977738;28;20034;-69
2022/12/31 05:15:54;;;;;;;2.63;1.42;;;;;;;13.61;100.00;100243.50;4977546;28;20535;-69
2022/12/31 05:18:21;;;;;;;5.50;1.65;;;;;;;13.72;100.00;100227.47;4977587;28;20499;-69
2022/12/31 05:20:47;;;;;;;3.97;1.60;;;;;;;13.77;100.00;100237.13;4977657;28;20098;-67
2022/12/31 05:23:14;;;;;;;4.63;1.40;;;;;;;13.81;100.00;100245.94;4977323;28;20476;-67
2022/12/31 05:25:42;;;;;;;2.92;1.38;;;;;;;13.91;100.00;100233.41;4977513;28;20037;-68
2022/12/31 05:28:07;;;;;;;2.95;1.48;;;;;;;13.98;100.00;100245.75;4977613;28;20034;-66
2022/12/31 05:30:33;;;;;;;3.90;1.42;;;;;;;14.04;100.00;100250.97;4977390;28;20387;-66
2022/12/31 05:32:58;;;;;;;2.05;1.30;;;;;;;14.11;100.00;100252.66;4977254;28;20030;-67
2022/12/31 05:35:24;;;;;;;1.38;1.27;;;;;;;14.14;100.00;100265.91;4977317;28;20030;-66
2022/12/31 05:37:49;;;;;;;2.75;1.20;;;;;;;14.15;100.00;100267.66;4977422;28;20073;-67
2022/12/31 05:40:14;;;;;;;2.83;1.20;;;;;;;14.17;100.00;100257.00;4977352;28;20385;-67
2022/12/31 05:42:40;;;;;;;2.97;1.20;;;;;;;14.18;100.00;100266.75;4977787;28;20027;-70
2022/12/31 05:45:06;;;;;;;4.47;1.20;;;;;;;14.11;100.00;100273.03;4978093;28;20027;-69
2022/12/31 05:47:31;;;;;;;3.08;1.30;;;;;;;14.03;100.00;100254.53;4960710;28;20377;-67
2022/12/31 05:49:57;;;;;;;2.72;1.40;;;;;;;14.07;100.00;100264.22;4977496;28;20038;-66
2022/12/31 05:52:22;;;;;;;2.03;1.08;;;;;;;14.08;100.00;100265.09;4976912;28;20106;-67
2022/12/31 05:54:47;;;;;;;2.30;1.30;;;;;;;14.09;100.00;100267.75;4977057;28;20431;-66
2022/12/31 05:57:13;;;;;;;7.78;1.67;;;;;;;14.14;100.00;100265.91;4976901;28;20055;-67
2022/12/31 05:59:39;;;;;;;2.92;1.40;;;;;;;14.18;100.00;100274.72;4976980;28;20551;-66
2022/12/31 06:02:04;;;;;;;2.47;1.38;;;;;;;14.25;100.00;100261.31;4977212;28;20392;-67
2022/12/31 06:04:29;;;;;;;2.58;1.23;;;;;;;14.29;100.00;100254.16;4976808;28;20365;-67
2022/12/31 06:06:55;;;;;;;2.38;1.20;;;;;;;14.38;100.00;100245.19;4976845;28;20153;-67
2022/12/31 06:09:22;;;;;;;3.55;1.38;;;;;;;14.43;100.00;100268.16;4976667;28;20476;-68
2022/12/31 06:11:48;;;;;;;2.20;1.30;;;;;;;14.55;100.00;100276.88;4976711;28;20027;-69
2022/12/31 06:14:14;;;;;;;4.40;1.40;;;;;;;14.57;100.00;100283.06;4976678;28;20029;-69
2022/12/31 06:16:40;;;;;;;2.78;1.17;;;;;;;14.64;100.00;100290.91;4959420;28;20113;-69
2022/12/31 06:19:05;;;;;;;2.30;1.10;;;;;;;14.68;100.00;100265.16;4976614;28;20027;-68
2022/12/31 06:21:31;;;;;;;2.20;1.20;;;;;;;14.73;100.00;100292.56;4976315;28;20027;-69
2022/12/31 06:23:57;;;;;;;2.53;1.23;;;;;;;14.74;100.00;100281.91;4976446;28;20380;-66
2022/12/31 06:26:23;;;;;;;3.38;1.40;;;;;;;14.82;100.00;100297.75;4976667;28;20075;-67
2022/12/31 06:28:48;;;;;;;3.80;1.38;;;;;;;14.86;100.00;100283.50;4976406;28;20451;-67
2022/12/31 06:31:14;;;;;;;2.17;1.25;;;;;;;14.92;99.44;100302.03;4958971;28;20506;-66
2022/12/31 06:33:40;;;;;;;3.28;1.20;;;;;;;14.98;98.68;100301.03;4976605;28;20034;-66
2022/12/31 06:36:11;;;;;;;2.17;1.27;;;;;;;15.03;97.55;100313.38;4976249;28;20540;-66
2022/12/31 06:38:39;;;;;;;6.55;1.40;;;;;;;15.11;96.75;100297.25;4976406;28;20027;-66
2022/12/31 06:41:10;;;;;;;3.58;1.27;;;;;;;15.15;95.95;100285.66;4976163;28;20031;-66
2022/12/31 06:43:36;;;;;;;2.22;1.15;;;;;;;15.21;95.52;100292.69;4976118;28;20085;-66
2022/12/31 06:46:04;;;;;;;3.70;1.30;;;;;;;15.26;94.77;100294.34;4976075;28;20034;-65
2022/12/31 06:48:29;;;;;;;2.72;1.20;;;;;;;15.38;93.46;100305.72;4976238;28;20052;-66
2022/12/31 06:50:55;;;;;;;2.45;1.20;;;;;;;15.35;94.08;100306.63;4975989;28;20484;-66
2022/12/31 06:53:21;;;;;;;3.25;1.42;;;;;;;15.32;94.25;100292.50;4975847;28;20030;-66
2022/12/31 06:55:49;;;;;;;1.83;1.05;;;;;;;15.31;94.50;100301.38;4975652;28;20043;-67
2022/12/31 06:58:15;;;;;;;3.28;1.30;;;;;;;15.33;94.06;100297.81;4975736;28;20182;-67
2022/12/31 07:01:03;;;;;;;2.47;1.40;;;;;;;15.36;93.69;100288.88;4975364;28;20046;-66
2022/12/31 07:03:39;;;;;;;2.63;1.10;;;;;;;15.46;92.42;100309.09;4975821;28;20038;-66
2022/12/31 07:06:11;;;;;;;2.58;1.10;;;;;;;15.49;92.74;100293.94;4975752;28;20420;-66
2022/12/31 07:08:42;;;;;;;4.97;1.47;;;;;;;15.47;92.62;100302.88;4975889;28;20388;-66
2022/12/31 07:11:22;;;;;;;4.20;1.33;;;;;;;15.45;92.82;100297.56;4975776;28;20034;-66
2022/12/31 07:14:18;;;;;;;4.18;1.40;;;;;;;15.44;93.24;100303.78;4975833;28;20424;-66
2022/12/31 07:17:01;;;;;;;3.85;1.58;;;;;;;15.48;92.47;100302.84;4975526;28;20030;-66
2022/12/31 07:19:35;;;;;;;3.70;1.50;;;;;;;15.46;93.20;100295.78;4975468;28;20037;-66
2022/12/31 07:22:01;;;;;;;4.65;1.52;;;;;;;15.45;92.65;100315.31;4975216;28;20077;-66
2022/12/31 07:24:27;;;;;;;2.88;1.77;;;;;;;15.46;93.04;100306.41;4975354;28;20027;-66
2022/12/31 07:27:07;;;;;;;5.35;1.40;;;;;;;15.43;93.01;100319.81;4975286;28;20384;-66
2022/12/31 07:29:51;;;;;;;5.70;1.80;;;;;;;15.48;92.40;100323.25;4975355;28;20027;-67
2022/12/31 07:32:49;;;;;;;4.57;1.58;;;;;;;15.47;92.89;100317.06;4975218;28;20022;-66
2022/12/31 07:35:34;;;;;;;5.20;1.70;;;;;;;15.52;91.46;100317.84;4975356;28;20109;-67
2022/12/31 07:38:10;;;;;;;4.68;1.50;;;;;;;15.51;91.52;100300.13;4975109;28;20030;-67
2022/12/31 07:40:42;;;;;;;3.75;1.60;;;;;;;15.57;91.59;100335.53;4975148;28;20038;-67
2022/12/31 07:43:30;;;;;;;3.73;1.57;;;;;;;15.55;92.30;100327.59;4975120;28;20031;-66
2022/12/31 07:46:05;;;;;;;3.40;1.50;;;;;;;15.51;92.00;100317.91;4975044;28;20364;-66
2022/12/31 07:48:30;;;;;;;3.75;1.50;;;;;;;15.49;92.02;100320.56;4975005;28;20384;-66
2022/12/31 07:50:56;;;;;;;4.32;1.50;;;;;;;15.45;92.13;100312.66;4975149;28;20034;-66
2022/12/31 07:53:23;;;;;;;3.97;1.50;;;;;;;15.42;93.37;100345.56;4974606;28;20026;-66
2022/12/31 07:55:58;;;;;;;5.63;1.90;;;;;;;15.36;94.71;100398.03;4974676;28;20043;-67
2022/12/31 07:58:42;;;;;;;5.82;1.67;;;;;;;15.28;95.47;100311.16;4973790;28;20027;-67
2022/12/31 08:01:11;;;;;;;4.40;1.52;;;;;;;15.19;95.78;100315.78;4974585;28;20034;-66
2022/12/31 08:04:02;;;;;;;5.40;1.80;;;;;;;15.14;95.71;100318.50;4974618;28;20038;-67
2022/12/31 08:06:52;;;;;;;4.43;1.60;;;;;;;15.12;96.62;100330.97;4974538;28;20118;-66
2022/12/31 08:09:40;;;;;;;4.60;1.58;;;;;;;15.12;96.39;100330.09;4974880;28;20044;-66
2022/12/31 08:12:06;;;;;;;4.90;1.70;;;;;;;15.13;96.55;100353.16;4973758;28;20542;-66
2022/12/31 08:14:47;;;;;;;3.28;1.60;;;;;;;15.18;96.73;100351.28;4974303;28;20089;-66
2022/12/31 08:17:17;;;;;;;3.63;1.55;;;;;;;15.04;97.51;100340.88;4974374;28;20034;-67
2022/12/31 08:19:44;;;;;;;3.38;1.55;;;;;;;15.05;98.78;100355.91;4973677;28;20491;-66
2022/12/31 08:22:36;;;;;;;3.10;1.60;;;;;;;14.98;99.83;100397.69;4956227;28;20058;-67
2022/12/31 08:25:17;;;;;;;3.92;1.48;;;;;;;14.91;100.00;100384.53;4968820;28;20042;-67
2022/12/31 08:27:53;;;;;;;3.40;1.60;;;;;;;14.89;100.00;100376.53;4973955;28;20030;-66
2022/12/31 08:30:22;;;;;;;3.17;1.60;;;;;;;14.86;99.65;100389.91;4973735;28;20063;-67
2022/12/31 08:33:07;;;;;;;4.60;1.60;;;;;;;14.90;99.06;100419.97;4973833;28;20054;-66
2022/12/31 08:35:41;;;;;;;3.90;1.50;;;;;;;14.97;98.27;100419.00;4973749;28;20103;-66
2022/12/31 08:38:34;;;;;;;6.65;1.70;;;;;;;14.99;97.71;100406.59;4973886;28;20048;-66
2022/12/31 08:41:30;;;;;;;3.60;1.40;;;;;;;15.05;97.00;100427.75;4974207;28;20555;-68
2022/12/31 08:44:28;;;;;;;3.60;1.65;;;;;;;15.09;96.47;100457.88;4974292;28;20045;-68
2022/12/31 08:47:15;;;;;;;5.00;1.73;;;;;;;15.10;97.27;100433.91;4970741;28;20038;-66
2022/12/31 08:49:41;;;;;;;3.92;1.60;;;;;;;15.05;97.88;100457.03;4973731;28;20082;-66
2022/12/31 08:52:18;;;;;;;5.03;1.52;;;;;;;15.04;97.69;100460.59;4973363;28;20027;-66
2022/12/31 08:54:44;;;;;;;4.80;1.70;;;;;;;15.04;97.45;100463.28;4973704;28;20393;-65
2022/12/31 08:57:37;;;;;;;3.65;1.70;;;;;;;15.03;97.92;100453.50;4973313;28;20055;-66
2022/12/31 09:00:13;;;;;;;4.80;1.65;;;;;;;15.07;96.14;100476.50;4973490;28;20023;-66
2022/12/31 09:02:47;;;;;;;3.40;1.50;;;;;;;15.14;95.56;100503.94;4973368;28;20045;-66
2022/12/31 09:05:33;;;;;;;3.47;1.38;;;;;;;15.21;95.26;100506.50;4973749;28;20069;-66
2022/12/31 09:08:29;;;;;;;3.58;1.58;;;;;;;15.23;95.69;100499.34;4966179;28;20033;-66
2022/12/31 09:11:09;;;;;;;4.10;1.63;;;;;;;15.17;95.96;100506.56;4973898;28;20019;-66
2022/12/31 09:13:46;;;;;;;5.55;1.80;;;;;;;15.13;96.71;100511.03;4973715;28;20019;-66
2022/12/31 09:16:33;;;;;;;3.17;1.70;;;;;;;15.10;97.16;100512.84;4973548;28;20034;-65
2022/12/31 09:18:58;;;;;;;2.45;1.42;;;;;;;15.06;97.87;100522.66;4973309;28;20094;-66
2022/12/31 09:21:24;;;;;;;4.60;1.70;;;;;;;15.00;98.20;100534.28;4973309;28;20477;-66
2022/12/31 09:23:49;;;;;;;4.03;1.60;;;;;;;14.93;99.97;100548.53;4973816;28;20054;-67
2022/12/31 09:26:33;;;;;;;4.72;1.80;;;;;;;14.88;100.00;100573.44;4976950;28;20026;-67
2022/12/31 09:29:08;;;;;;;7.05;2.08;;;;;;;14.75;100.00;100551.41;4976474;28;20038;-67
2022/12/31 09:31:40;;;;;;;7.35;1.85;;;;;;;14.73;100.00;100550.53;4976853;28;20062;-67
2022/12/31 09:34:23;;;;;;;5.75;1.90;;;;;;;14.62;100.00;100548.00;4976902;28;20097;-68
2022/12/31 09:36:54;;;;;;;4.13;1.55;;;;;;;14.61;100.00;100548.03;4975741;28;20542;-67
2022/12/31 09:39:40;;;;;;;6.22;2.00;;;;;;;14.56;100.00;100550.75;4975371;28;20031;-67
2022/12/31 09:42:12;;;;;;;4.20;1.80;;;;;;;14.56;100.00;100555.16;4976051;28;20511;-66
2022/12/31 09:45:18;;;;;;;3.72;1.70;;;;;;;14.50;100.00;100550.78;4975216;28;20492;-66
2022/12/31 09:48:09;;;;;;;5.85;1.80;;;;;;;14.54;100.00;100563.16;4975009;28;20043;-67
2022/12/31 09:50:42;;;;;;;4.75;1.83;;;;;;;14.52;100.00;100559.66;4974918;28;20034;-67
2022/12/31 09:53:41;;;;;;;9.40;1.83;;;;;;;14.57;100.00;100563.13;4974976;28;20107;-67
2022/12/31 09:56:31;;;;;;;5.82;1.70;;;;;;;14.62;100.00;100550.66;4980713;28;20050;-66
2022/12/31 09:59:11;;;;;;;5.60;1.70;;;;;;;14.68;100.00;100553.25;4995075;28;20033;-65
2022/12/31 10:01:42;;;;;;;6.38;1.90;;;;;;;14.72;100.00;100552.31;4995742;28;20088;-66
2022/12/31 10:04:16;;;;;;;4.28;1.90;;;;;;;14.77;100.00;100562.91;4995797;28;20054;-67
2022/12/31 10:07:03;;;;;;;5.35;1.77;;;;;;;14.83;100.00;100552.22;4995709;28;20026;-66
2022/12/31 10:09:47;;;;;;;6.57;1.90;;;;;;;14.94;99.22;100547.63;4995642;28;20037;-67
2022/12/31 10:12:25;;;;;;;3.53;1.50;;;;;;;15.05;99.04;100551.97;4995556;28;20026;-67
2022/12/31 10:15:29;;;;;;;8.30;1.90;;;;;;;15.07;99.11;100571.44;4995478;28;20027;-66
2022/12/31 10:18:22;;;;;;;3.95;1.75;;;;;;;15.08;99.17;100566.13;4995644;28;20136;-66
2022/12/31 10:21:02;;;;;;;6.25;1.70;;;;;;;15.11;97.06;100552.75;4995606;28;20023;-67
2022/12/31 10:23:33;;;;;;;4.32;1.98;;;;;;;15.16;98.35;100566.91;4993731;28;20073;-67
2022/12/31 10:26:08;;;;;;;3.88;1.60;;;;;;;15.15;99.17;100561.56;4995438;28;20047;-66
2022/12/31 10:29:03;;;;;;;5.22;1.80;;;;;;;15.15;99.19;100551.81;4995352;28;20033;-66
2022/12/31 10:31:56;;;;;;;5.28;1.73;;;;;;;15.18;99.15;100551.78;4995313;28;20031;-66
2022/12/31 10:34:50;;;;;;;4.55;1.85;;;;;;;15.14;98.96;100535.88;4995070;28;20061;-66
2022/12/31 10:37:18;;;;;;;6.20;2.05;;;;;;;15.19;98.02;100548.22;4994920;28;20085;-67
2022/12/31 10:39:46;;;;;;;7.38;2.00;;;;;;;15.20;97.64;100531.34;4994764;28;20034;-66
2022/12/31 10:42:29;;;;;;;6.85;1.90;;;;;;;15.24;97.24;100529.50;4994981;28;20113;-66
2022/12/31 10:45:07;;;;;;;6.70;2.17;;;;;;;15.31;95.87;100525.00;4994974;28;20034;-66
2022/12/31 10:47:56;;;;;;;7.03;2.05;;;;;;;15.33;95.54;100539.16;4995026;28;20514;-66
2022/12/31 10:51:01;;;;;;;5.00;1.80;;;;;;;15.40;95.57;100535.50;4994896;28;20365;-66
2022/12/31 10:53:26;;;;;;;5.88;2.03;;;;;;;15.41;94.65;100571.88;4994807;28;20439;-67
2022/12/31 10:56:08;;;;;;;6.53;1.80;;;;;;;15.46;94.07;100552.31;4994463;28;20476;-66
2022/12/31 10:58:51;;;;;;;5.50;1.80;;;;;;;15.46;93.61;100572.69;4994953;28;20030;-68
2022/12/31 11:01:47;;;;;;;8.30;2.10;;;;;;;15.50;93.12;100535.38;4994585;28;20023;-66
2022/12/31 11:04:36;;;;;;;4.55;2.03;;;;;;;15.56;92.47;100555.72;4994607;28;20054;-67
2022/12/31 11:07:29;;;;;;;5.38;1.77;;;;;;;15.58;91.44;100576.97;4994642;28;20472;-66
2022/12/31 11:09:57;;;;;;;7.03;2.20;;;;;;;15.56;91.21;100574.34;4994638;28;20498;-66
2022/12/31 11:12:52;;;;;;;7.97;2.05;;;;;;;15.60;90.96;100567.19;4994356;28;20031;-65
2022/12/31 11:15:20;;;;;;;7.38;2.30;;;;;;;15.63;89.92;100568.03;4994827;28;20061;-66
2022/12/31 11:18:15;;;;;;;6.18;2.20;;;;;;;15.72;89.94;100565.28;4994439;28;20022;-65
2022/12/31 11:20:47;;;;;;;7.68;2.20;;;;;;;15.74;89.16;100573.22;4994690;28;20030;-66
2022/12/31 11:23:26;;;;;;;6.68;1.88;;;;;;;15.78;89.34;100553.63;4994049;28;20415;-65
2022/12/31 11:26:13;;;;;;;5.10;2.05;;;;;;;15.82;87.69;100591.78;4994370;28;20033;-67
2022/12/31 11:28:48;;;;;;;5.28;1.80;;;;;;;15.88;87.72;100565.91;4994267;28;20033;-65
2022/12/31 11:31:19;;;;;;;6.72;2.00;;;;;;;15.89;87.39;100566.81;4994622;28;20061;-65
2022/12/31 11:34:03;;;;;;;6.28;2.10;;;;;;;15.90;87.00;100571.22;4994169;28;20057;-64
2022/12/31 11:36:58;;;;;;;5.70;1.83;;;;;;;15.89;87.01;100586.34;4994766;28;20417;-66
2022/12/31 11:39:38;;;;;;;10.30;2.15;;;;;;;15.88;87.21;100589.88;4994285;28;20041;-65
2022/12/31 11:42:29;;;;;;;7.95;2.30;;;;;;;15.89;87.03;100570.34;4994161;28;20085;-66
2022/12/31 11:45:21;;;;;;;6.05;1.92;;;;;;;15.91;86.89;100581.84;4993921;28;20049;-65
2022/12/31 11:47:55;;;;;;;5.95;2.03;;;;;;;15.87;87.05;100580.13;4993942;28;20475;-67
2022/12/31 11:50:23;;;;;;;9.25;2.50;;;;;;;15.83;87.08;100582.88;4993749;28;20089;-66
2022/12/31 11:53:26;;;;;;;7.25;2.20;;;;;;;15.84;88.27;100569.50;4993730;28;20361;-65
2022/12/31 11:56:16;;;;;;;6.57;2.30;;;;;;;15.78;88.93;100591.81;4993656;28;20046;-66
2022/12/31 11:58:45;;;;;;;8.80;2.30;;;;;;;15.73;88.63;100587.47;4970889;28;20441;-65
2022/12/31 12:01:17;;;;;;;5.65;2.20;;;;;;;15.69;89.43;100580.41;4974374;28;20429;-65
2022/12/31 12:03:43;;;;;;;6.43;1.80;;;;;;;15.66;88.96;100569.78;4957385;28;20062;-65
2022/12/31 12:06:15;;;;;;;7.32;2.15;;;;;;;15.65;88.66;100584.03;4957000;28;20384;-65
2022/12/31 12:08:41;;;;;;;6.75;2.13;;;;;;;15.65;89.37;100589.34;4974475;28;20027;-65
2022/12/31 12:11:17;;;;;;;6.63;2.00;;;;;;;15.62;88.94;100624.84;4974261;28;20507;-67
2022/12/31 12:13:44;;;;;;;5.75;1.98;;;;;;;15.62;89.45;100579.56;4956772;28;20039;-66
2022/12/31 12:16:10;;;;;;;8.75;2.20;;;;;;;15.59;89.73;100578.72;4956836;28;20038;-66
2022/12/31 12:18:45;;;;;;;6.10;1.95;;;;;;;15.57;90.68;100589.41;4974291;28;20380;-66
2022/12/31 12:21:14;;;;;;;6.43;2.10;;;;;;;15.53;90.06;100579.72;4956550;28;20373;-67
2022/12/31 12:23:41;;;;;;;3.20;1.70;;;;;;;15.59;89.33;100578.72;4973874;28;20051;-66
2022/12/31 12:26:26;;;;;;;7.57;2.15;;;;;;;15.56;90.85;100585.00;4974088;28;20492;-66
2022/12/31 12:28:51;;;;;;;3.60;1.90;;;;;;;15.50;90.82;100580.66;4974116;28;20098;-67
2022/12/31 12:31:22;;;;;;;5.57;2.03;;;;;;;15.51;90.99;100594.84;4973719;28;20459;-67
2022/12/31 12:33:50;;;;;;;6.47;2.00;;;;;;;15.46;91.60;100586.91;4973661;28;20105;-67
2022/12/31 12:36:18;;;;;;;7.15;2.13;;;;;;;15.44;91.78;100578.06;4974002;28;20042;-67
2022/12/31 12:38:44;;;;;;;5.10;2.30;;;;;;;15.41;91.23;100564.78;4973575;28;20023;-67
2022/12/31 12:41:18;;;;;;;6.40;2.30;;;;;;;15.38;92.36;100571.94;4974016;28;20030;-67
2022/12/31 12:43:44;;;;;;;7.88;2.30;;;;;;;15.35;92.52;100567.53;4973644;28;20563;-67
2022/12/31 12:46:32;;;;;;;5.07;2.00;;;;;;;15.35;92.52;100556.88;4973735;28;20043;-66